createdAt,value
2018-03-23T00:01:32.580Z,8.30
2018-03-23T00:04:00.693Z,8.20
2018-03-23T00:08:56.504Z,8.20
2018-03-23T00:11:24.053Z,8.30
2018-03-23T00:13:51.469Z,8.30
2018-03-23T00:16:19.016Z,8.20
2018-03-23T00:18:47.154Z,8.10
2018-03-23T00:21:15.229Z,7.90
2018-03-23T00:23:42.708Z,7.80
2018-03-23T00:28:39.229Z,7.90
2018-03-23T00:33:34.892Z,8.10
2018-03-23T00:36:02.993Z,8.10
2018-03-23T00:40:58.637Z,8.20
2018-03-23T00:43:26.785Z,8.20
2018-03-23T00:45:54.148Z,8.10
2018-03-23T00:48:22.277Z,8.00
2018-03-23T00:50:50.343Z,7.90
2018-03-23T00:53:18.463Z,7.90
2018-03-23T00:55:47.521Z,7.90
2018-03-23T00:58:15.653Z,8.10
2018-03-23T01:00:43.017Z,8.30
2018-03-23T01:03:10.400Z,8.30
2018-03-23T01:08:06.013Z,8.30
2018-03-23T01:10:33.411Z,8.10
2018-03-23T01:13:00.776Z,8.00
2018-03-23T01:15:28.173Z,7.90
2018-03-23T01:17:55.556Z,7.80
2018-03-23T01:20:22.940Z,7.90
2018-03-23T01:22:50.321Z,7.90
2018-03-23T01:25:18.499Z,7.80
2018-03-23T01:27:45.876Z,7.70
2018-03-23T01:30:14.024Z,7.60
2018-03-23T01:32:41.380Z,7.60
2018-03-23T01:35:08.749Z,7.60
2018-03-23T01:37:36.160Z,7.40
2018-03-23T01:40:03.576Z,7.40
2018-03-23T01:42:30.979Z,7.50
2018-03-23T01:44:59.128Z,7.60
2018-03-23T01:47:26.828Z,7.60
2018-03-23T01:49:54.518Z,7.70
2018-03-23T01:54:51.141Z,7.70
2018-03-23T01:57:19.238Z,7.80
2018-03-23T01:59:46.620Z,7.80
2018-03-23T02:02:14.731Z,7.70
2018-03-23T02:04:42.092Z,8.00
2018-03-23T02:09:37.812Z,8.20
2018-03-23T02:12:05.885Z,8.10
2018-03-23T02:14:33.340Z,8.00
2018-03-23T02:17:01.448Z,7.90
2018-03-23T02:24:26.460Z,8.00
2018-03-23T02:26:53.908Z,8.20
2018-03-23T02:29:21.272Z,8.30
2018-03-23T02:31:48.675Z,8.40
2018-03-23T02:36:44.493Z,8.50
2018-03-23T02:44:08.453Z,8.40
2018-03-23T02:46:36.309Z,8.40
2018-03-23T02:49:04.398Z,8.50
2018-03-23T02:54:00.032Z,8.40
2018-03-23T02:56:27.513Z,8.40
2018-03-23T02:58:54.833Z,8.40
2018-03-23T03:01:22.201Z,8.50
2018-03-23T03:03:50.301Z,8.60
2018-03-23T03:08:46.034Z,8.50
2018-03-23T03:11:14.172Z,8.20
2018-03-23T03:13:41.537Z,8.10
2018-03-23T03:16:09.040Z,8.00
2018-03-23T03:18:37.160Z,8.10
2018-03-23T03:26:01.088Z,8.50
2018-03-23T03:30:56.825Z,8.40
2018-03-23T03:33:24.164Z,8.30
2018-03-23T03:35:52.209Z,8.30
2018-03-23T03:38:20.356Z,8.40
2018-03-23T03:40:47.758Z,8.50
2018-03-23T03:43:15.120Z,8.40
2018-03-23T03:45:42.541Z,8.30
2018-03-23T03:48:09.904Z,8.20
2018-03-23T03:50:37.271Z,8.00
2018-03-23T03:53:04.625Z,8.10
2018-03-23T03:55:32.014Z,8.10
2018-03-23T03:58:00.091Z,8.00
2018-03-23T04:02:55.787Z,8.00
2018-03-23T04:05:23.144Z,8.20
2018-03-23T04:07:50.519Z,8.20
2018-03-23T04:10:18.589Z,8.00
2018-03-23T04:15:14.326Z,8.00
2018-03-23T04:17:41.644Z,8.20
2018-03-23T04:20:08.981Z,8.10
2018-03-23T04:22:36.355Z,8.20
2018-03-23T04:30:00.359Z,8.00
2018-03-23T04:32:27.703Z,7.80
2018-03-23T04:34:55.069Z,7.70
2018-03-23T04:37:23.175Z,7.70
2018-03-23T04:42:18.851Z,8.10
2018-03-23T04:44:46.399Z,8.10
2018-03-23T04:47:13.890Z,8.30
2018-03-23T04:54:37.932Z,8.70
2018-03-23T04:57:06.055Z,8.80
2018-03-23T04:59:33.422Z,8.90
2018-03-23T05:02:00.808Z,8.70
2018-03-23T05:04:28.175Z,8.80
2018-03-23T05:09:31.193Z,9.00
2018-03-23T05:11:58.532Z,8.90
2018-03-23T05:14:26.791Z,8.90
2018-03-23T05:16:54.384Z,8.80
2018-03-23T05:19:22.408Z,8.70
2018-03-23T05:21:50.560Z,8.80
2018-03-23T05:24:17.944Z,9.00
2018-03-23T05:26:47.020Z,9.00
2018-03-23T05:29:15.256Z,9.00
2018-03-23T05:31:42.601Z,9.00
2018-03-23T05:34:09.970Z,9.10
2018-03-23T05:39:05.884Z,8.80
2018-03-23T05:41:33.261Z,8.80
2018-03-23T05:44:01.470Z,8.60
2018-03-23T05:46:29.584Z,8.40
2018-03-23T05:48:57.653Z,8.50
2018-03-23T05:51:25.767Z,8.40
2018-03-23T05:53:53.872Z,8.20
2018-03-23T06:01:18.700Z,8.10
2018-03-23T06:03:46.196Z,8.20
2018-03-23T06:06:13.560Z,8.50
2018-03-23T06:11:09.240Z,8.70
2018-03-23T06:13:36.720Z,8.60
2018-03-23T06:18:33.169Z,8.30
2018-03-23T06:23:29.601Z,8.40
2018-03-23T06:25:57.121Z,8.40
2018-03-23T06:30:52.747Z,8.60
2018-03-23T06:33:20.093Z,8.70
2018-03-23T06:35:48.196Z,8.80
2018-03-23T06:38:15.528Z,8.90
2018-03-23T06:40:43.715Z,8.90
2018-03-23T06:43:11.096Z,8.90
2018-03-23T06:45:38.580Z,8.80
2018-03-23T06:48:06.712Z,8.70
2018-03-23T06:50:34.164Z,8.70
2018-03-23T06:55:29.904Z,8.30
2018-03-23T06:57:58.173Z,8.00
2018-03-23T07:00:25.764Z,8.10
2018-03-23T07:05:21.436Z,8.40
2018-03-23T07:07:48.830Z,8.50
2018-03-23T07:12:44.592Z,8.70
2018-03-23T07:17:40.294Z,9.00
2018-03-23T07:22:36.100Z,9.30
2018-03-23T07:25:04.237Z,9.40
2018-03-23T07:27:32.370Z,9.50
2018-03-23T07:32:28.033Z,9.80
2018-03-23T07:34:56.149Z,9.80
2018-03-23T07:37:23.561Z,9.80
2018-03-23T07:39:51.688Z,9.90
2018-03-23T07:42:19.125Z,10.00
2018-03-23T07:47:14.979Z,10.10
2018-03-23T07:49:43.061Z,10.30
2018-03-23T07:52:10.537Z,10.40
2018-03-23T07:54:38.739Z,10.40
2018-03-23T07:57:06.184Z,10.60
2018-03-23T07:59:33.662Z,10.50
2018-03-23T08:02:01.580Z,10.40
2018-03-23T08:04:28.924Z,10.50
2018-03-23T08:06:57.059Z,10.30
2018-03-23T08:09:25.107Z,10.00
2018-03-23T08:11:52.576Z,10.10
2018-03-23T08:14:20.781Z,10.00
2018-03-23T08:16:48.252Z,9.80
2018-03-23T08:19:16.474Z,9.50
2018-03-23T08:21:43.818Z,9.40
2018-03-23T08:24:11.248Z,9.60
2018-03-23T08:29:07.295Z,9.60
2018-03-23T08:31:34.693Z,9.70
2018-03-23T08:34:02.030Z,9.60
2018-03-23T08:38:58.534Z,9.80
2018-03-23T08:41:25.919Z,10.20
2018-03-23T08:46:21.661Z,10.40
2018-03-23T08:51:18.052Z,10.40
2018-03-23T08:53:46.180Z,10.50
2018-03-23T08:56:13.537Z,10.40
2018-03-23T09:01:09.913Z,10.50
2018-03-23T09:03:38.021Z,10.50
2018-03-23T09:06:05.365Z,10.10
2018-03-23T09:08:33.462Z,10.20
2018-03-23T09:11:01.531Z,10.30
2018-03-23T09:13:28.941Z,10.30
2018-03-23T09:15:56.318Z,10.50
2018-03-23T09:18:23.769Z,10.50
2018-03-23T09:20:51.924Z,10.60
2018-03-23T09:23:19.298Z,10.70
2018-03-23T09:28:15.165Z,11.00
2018-03-23T09:30:42.666Z,10.90
2018-03-23T09:33:10.782Z,10.70
2018-03-23T09:35:38.325Z,10.40
2018-03-23T09:38:05.681Z,10.30
2018-03-23T09:40:33.132Z,10.40
2018-03-23T09:43:00.499Z,10.70
2018-03-23T09:45:27.859Z,10.90
2018-03-23T09:47:55.217Z,10.90
2018-03-23T09:50:22.601Z,11.00
2018-03-23T09:52:50.056Z,11.00
2018-03-23T09:57:46.561Z,10.90
2018-03-23T10:02:42.983Z,11.10
2018-03-23T10:05:11.053Z,11.40
2018-03-23T10:07:38.444Z,11.90
2018-03-23T10:12:34.148Z,12.60
2018-03-23T10:15:02.289Z,12.60
2018-03-23T10:19:58.766Z,13.10
2018-03-23T10:22:26.172Z,13.30
2018-03-23T10:24:53.519Z,13.20
2018-03-23T10:27:21.131Z,12.80
2018-03-23T10:29:48.695Z,12.50
2018-03-23T10:32:19.397Z,12.30
2018-03-23T10:34:48.822Z,12.00
2018-03-23T10:37:16.308Z,12.00
2018-03-23T10:39:43.672Z,12.00
2018-03-23T10:42:11.063Z,12.00
2018-03-23T10:44:39.165Z,11.80
2018-03-23T10:47:06.612Z,11.70
2018-03-23T10:49:34.218Z,11.70
2018-03-23T10:52:01.612Z,11.80
2018-03-23T10:54:29.000Z,12.00
2018-03-23T10:56:56.484Z,12.10
2018-03-23T10:59:23.897Z,12.20
2018-03-23T11:01:58.213Z,12.10
2018-03-23T11:04:25.704Z,12.00
2018-03-23T11:06:53.101Z,12.00
2018-03-23T11:09:20.568Z,12.00
2018-03-23T11:11:48.849Z,12.00
2018-03-23T11:14:16.545Z,12.10
2018-03-23T11:16:43.921Z,12.10
2018-03-23T11:19:12.091Z,12.00
2018-03-23T11:21:40.439Z,11.90
2018-03-23T11:24:08.055Z,11.80
2018-03-23T11:29:04.520Z,11.80
2018-03-23T11:31:32.026Z,12.00
2018-03-23T11:33:59.419Z,12.30
2018-03-23T11:36:27.529Z,12.70
2018-03-23T11:38:54.933Z,13.10
2018-03-23T11:41:23.030Z,13.60
2018-03-23T11:46:18.813Z,13.80
2018-03-23T11:48:46.213Z,13.70
2018-03-23T11:51:14.591Z,13.60
2018-03-23T11:53:42.755Z,13.70
2018-03-23T11:56:10.904Z,13.90
2018-03-23T11:58:38.326Z,14.00
2018-03-23T12:01:05.711Z,14.00
2018-03-23T12:03:33.085Z,14.00
2018-03-23T12:08:28.890Z,13.60
2018-03-23T12:10:56.356Z,13.60
2018-03-23T12:13:27.607Z,13.30
2018-03-23T12:15:55.099Z,13.00
2018-03-23T12:18:22.537Z,12.80
2018-03-23T12:20:50.001Z,12.70
2018-03-23T12:23:18.257Z,12.70
2018-03-23T12:25:45.637Z,12.90
2018-03-23T12:28:13.874Z,13.30
2018-03-23T12:30:43.139Z,14.50
2018-03-23T12:33:11.347Z,15.10
2018-03-23T12:35:38.723Z,14.80
2018-03-23T12:38:06.174Z,14.30
2018-03-23T12:40:34.113Z,13.70
2018-03-23T12:43:01.544Z,13.30
2018-03-23T12:45:29.211Z,13.00
2018-03-23T12:47:56.579Z,12.90
2018-03-23T12:50:23.951Z,13.00
2018-03-23T12:52:53.636Z,13.20
2018-03-23T12:55:24.756Z,13.40
2018-03-23T12:57:53.114Z,13.50
2018-03-23T13:00:23.352Z,13.50
2018-03-23T13:02:54.653Z,13.20
2018-03-23T13:05:22.044Z,13.00
2018-03-23T13:07:50.182Z,12.80
2018-03-23T13:10:17.625Z,12.70
2018-03-23T13:12:45.024Z,12.50
2018-03-23T13:15:14.160Z,12.50
2018-03-23T13:17:41.556Z,12.60
2018-03-23T13:20:08.936Z,12.80
2018-03-23T13:22:36.430Z,12.80
2018-03-23T13:25:03.828Z,12.80
2018-03-23T13:27:31.281Z,12.70
2018-03-23T13:30:00.364Z,12.60
2018-03-23T13:32:27.712Z,12.60
2018-03-23T13:34:55.192Z,12.50
2018-03-23T13:37:22.625Z,12.40
2018-03-23T13:39:50.017Z,12.30
2018-03-23T13:42:22.176Z,12.30
2018-03-23T13:44:50.421Z,12.30
2018-03-23T13:47:18.700Z,12.20
2018-03-23T13:49:46.139Z,12.20
2018-03-23T13:52:13.538Z,12.20
2018-03-23T13:54:42.978Z,12.20
2018-03-23T13:57:11.701Z,12.20
2018-03-23T13:59:48.893Z,12.20
2018-03-23T14:02:16.817Z,12.10
2018-03-23T14:04:45.257Z,12.20
2018-03-23T14:07:12.687Z,12.30
2018-03-23T14:09:41.612Z,12.30
2018-03-23T14:12:09.841Z,12.40
2018-03-23T14:14:37.235Z,12.40
2018-03-23T14:17:04.597Z,12.50
2018-03-23T14:19:35.414Z,12.50
2018-03-23T14:22:08.900Z,12.60
2018-03-23T14:24:36.367Z,12.60
2018-03-23T14:27:06.401Z,12.70
2018-03-23T14:29:34.614Z,13.10
2018-03-23T14:32:01.965Z,13.40
2018-03-23T14:34:29.489Z,13.30
2018-03-23T14:36:58.381Z,13.20
2018-03-23T14:39:29.448Z,13.20
2018-03-23T14:41:57.681Z,13.10
2018-03-23T14:44:26.912Z,13.00
2018-03-23T14:46:54.424Z,12.90
2018-03-23T14:49:21.817Z,13.00
2018-03-23T14:51:49.336Z,12.90
2018-03-23T14:54:17.513Z,12.80
2018-03-23T14:56:47.843Z,12.70
2018-03-23T14:59:16.073Z,12.60
2018-03-23T15:01:45.143Z,12.60
2018-03-23T15:04:12.504Z,12.50
2018-03-23T15:06:40.932Z,12.50
2018-03-23T15:09:08.344Z,12.60
2018-03-23T15:11:37.480Z,12.50
2018-03-23T15:14:15.803Z,12.40
2018-03-23T15:16:43.325Z,12.40
2018-03-23T15:19:10.717Z,12.30
2018-03-23T15:21:38.051Z,12.10
2018-03-23T15:24:05.463Z,12.10
2018-03-23T15:26:32.918Z,12.10
2018-03-23T15:29:00.376Z,12.10
2018-03-23T15:31:28.705Z,12.00
2018-03-23T15:33:57.874Z,11.90
2018-03-23T15:36:26.072Z,11.80
2018-03-23T15:38:55.384Z,11.80
2018-03-23T15:41:25.786Z,11.80
2018-03-23T15:43:53.160Z,11.80
2018-03-23T15:46:21.449Z,11.80
2018-03-23T15:51:17.932Z,11.90
2018-03-23T15:53:45.301Z,11.90
2018-03-23T15:56:14.389Z,11.90
2018-03-23T15:58:41.764Z,11.90
2018-03-23T16:01:10.113Z,11.80
2018-03-23T16:03:37.516Z,11.60
2018-03-23T16:06:05.872Z,11.30
2018-03-23T16:08:33.307Z,11.30
2018-03-23T16:11:02.673Z,11.50
2018-03-23T16:13:30.124Z,11.60
2018-03-23T16:15:59.286Z,11.70
2018-03-23T16:18:33.162Z,11.60
2018-03-23T16:21:02.300Z,11.50
2018-03-23T16:23:32.592Z,11.40
2018-03-23T16:25:59.973Z,11.30
2018-03-23T16:28:27.542Z,11.40
2018-03-23T16:30:54.916Z,11.50
2018-03-23T16:33:23.104Z,11.40
2018-03-23T16:35:51.786Z,11.40
2018-03-23T16:38:19.934Z,11.30
2018-03-23T16:40:47.379Z,11.20
2018-03-23T16:43:14.784Z,11.10
2018-03-23T16:45:42.975Z,11.00
2018-03-23T16:48:10.349Z,10.90
2018-03-23T16:50:37.709Z,10.90
2018-03-23T16:53:07.178Z,10.70
2018-03-23T16:55:34.767Z,10.70
2018-03-23T16:58:02.150Z,10.60
2018-03-23T17:00:29.699Z,10.80
2018-03-23T17:02:57.938Z,11.00
2018-03-23T17:05:25.384Z,11.10
2018-03-23T17:07:52.869Z,11.10
2018-03-23T17:10:20.420Z,10.90
2018-03-23T17:12:47.808Z,10.80
2018-03-23T17:15:17.854Z,10.70
2018-03-23T17:17:48.184Z,10.50
2018-03-23T17:20:16.523Z,10.40
2018-03-23T17:22:43.982Z,10.30
2018-03-23T17:25:12.424Z,10.30
2018-03-23T17:27:41.563Z,10.30
2018-03-23T17:30:12.747Z,10.20
2018-03-23T17:32:41.125Z,10.30
2018-03-23T17:35:09.301Z,10.40
2018-03-23T17:37:36.797Z,10.40
2018-03-23T17:40:04.257Z,10.50
2018-03-23T17:42:31.778Z,10.70
2018-03-23T17:45:04.620Z,10.70
2018-03-23T17:47:32.052Z,10.70
2018-03-23T17:50:05.028Z,10.70
2018-03-23T17:52:35.416Z,10.80
2018-03-23T17:55:02.821Z,10.90
2018-03-23T17:57:30.224Z,10.80
2018-03-23T17:59:58.369Z,10.70
2018-03-23T18:02:25.758Z,10.80
2018-03-23T18:04:53.908Z,10.80
2018-03-23T18:07:22.031Z,10.70
2018-03-23T18:09:49.427Z,10.70
2018-03-23T18:12:18.808Z,10.60
2018-03-23T18:14:47.152Z,10.70
2018-03-23T18:17:14.646Z,10.80
2018-03-23T18:19:42.825Z,10.90
2018-03-23T18:22:10.631Z,10.90
2018-03-23T18:24:38.020Z,10.80
2018-03-23T18:27:05.457Z,10.80
2018-03-23T18:29:32.836Z,10.70
2018-03-23T18:32:00.297Z,10.70
2018-03-23T18:34:27.768Z,10.80
2018-03-23T18:36:56.104Z,10.90
2018-03-23T18:39:23.508Z,11.00
2018-03-23T18:41:50.944Z,11.10
2018-03-23T18:44:20.289Z,11.20
2018-03-23T18:46:48.420Z,11.20
2018-03-23T18:49:15.818Z,11.10
2018-03-23T18:51:43.936Z,10.90
2018-03-23T18:54:11.356Z,10.80
2018-03-23T18:56:38.844Z,10.80
2018-03-23T18:59:06.464Z,10.60
2018-03-23T19:01:33.988Z,10.50
2018-03-23T19:04:01.390Z,10.40
2018-03-23T19:06:28.964Z,10.50
2018-03-23T19:08:56.396Z,10.70
2018-03-23T19:11:26.416Z,10.80
2018-03-23T19:13:54.586Z,11.00
2018-03-23T19:16:22.912Z,11.10
2018-03-23T19:18:52.118Z,11.10
2018-03-23T19:21:22.115Z,11.10
2018-03-23T19:26:19.991Z,11.10
2018-03-23T19:28:47.366Z,10.90
2018-03-23T19:31:15.681Z,11.00
2018-03-23T19:33:46.809Z,11.00
2018-03-23T19:36:18.969Z,11.10
2018-03-23T19:38:48.216Z,11.00
2018-03-23T19:41:16.620Z,12.90
2018-03-23T19:43:44.086Z,14.80
2018-03-23T19:46:12.517Z,14.30
2018-03-23T19:48:45.673Z,13.60
2018-03-23T19:51:14.116Z,12.90
2018-03-23T19:53:41.565Z,13.10
2018-03-23T19:56:10.348Z,13.60
2018-03-23T19:58:39.535Z,13.30
2018-03-23T20:01:07.984Z,12.00
2018-03-23T20:03:37.025Z,11.10
2018-03-23T20:06:04.529Z,10.80
2018-03-23T20:08:31.932Z,11.30
2018-03-23T20:10:59.330Z,12.40
2018-03-23T20:13:29.394Z,13.30
2018-03-23T20:15:56.878Z,14.10
2018-03-23T20:18:26.313Z,14.40
2018-03-23T20:20:59.826Z,14.00
2018-03-23T20:23:27.943Z,14.10
2018-03-23T20:25:56.361Z,14.60
2018-03-23T20:28:32.466Z,14.90
2018-03-23T20:31:00.728Z,15.00
2018-03-23T20:33:31.796Z,15.00
2018-03-23T20:36:01.129Z,15.10
2018-03-23T20:38:28.598Z,15.30
2018-03-23T20:40:56.783Z,15.40
2018-03-23T20:43:24.237Z,15.40
2018-03-23T20:45:53.500Z,13.90
2018-03-23T20:48:21.710Z,13.90
2018-03-23T20:50:49.862Z,14.50
2018-03-23T20:53:18.221Z,14.20
2018-03-23T20:55:45.646Z,14.00
2018-03-23T20:58:14.833Z,14.10
2018-03-23T21:00:44.773Z,14.60
2018-03-23T21:03:12.270Z,15.10
2018-03-23T21:05:39.632Z,15.30
2018-03-23T21:08:07.129Z,15.30
2018-03-23T21:10:34.501Z,15.20
2018-03-23T21:13:01.892Z,15.00
2018-03-23T21:15:29.349Z,14.70
2018-03-23T21:20:26.950Z,14.50
2018-03-23T21:22:56.079Z,14.50
2018-03-23T21:25:24.436Z,14.70
2018-03-23T21:27:53.817Z,13.90
2018-03-23T21:30:26.121Z,14.20
2018-03-23T21:32:56.144Z,15.10
2018-03-23T21:35:23.521Z,15.30
2018-03-23T21:37:51.696Z,15.10
2018-03-23T21:40:20.830Z,14.80
2018-03-23T21:42:50.017Z,14.10
2018-03-23T21:45:19.096Z,13.80
2018-03-23T21:47:47.249Z,14.00
2018-03-23T21:50:14.672Z,14.40
2018-03-23T21:55:10.465Z,14.30
2018-03-23T21:57:39.608Z,13.60
2018-03-23T22:00:07.171Z,12.90
2018-03-23T22:02:34.573Z,12.20
2018-03-23T22:05:01.972Z,12.20
2018-03-23T22:07:30.416Z,12.20
2018-03-23T22:10:00.732Z,13.10
2018-03-23T22:12:28.983Z,13.10
2018-03-23T22:14:56.444Z,12.70
2018-03-23T22:17:30.189Z,13.20
2018-03-23T22:19:59.708Z,12.10
2018-03-23T22:22:29.930Z,12.10
2018-03-23T22:24:59.310Z,12.40
2018-03-23T22:27:28.530Z,12.00
2018-03-23T22:29:55.918Z,11.70
2018-03-23T22:32:24.489Z,11.70
2018-03-23T22:34:51.896Z,10.90
2018-03-23T22:37:19.289Z,10.20
2018-03-23T22:39:48.481Z,10.10
2018-03-23T22:42:15.866Z,10.30
2018-03-23T22:44:43.465Z,11.00
2018-03-23T22:47:10.885Z,11.10
2018-03-23T22:49:39.152Z,10.90
2018-03-23T22:52:06.589Z,10.60
2018-03-23T22:54:33.972Z,10.90
2018-03-23T22:57:02.228Z,11.50
2018-03-23T22:59:29.635Z,11.70
2018-03-23T23:04:31.609Z,12.00
2018-03-23T23:07:01.889Z,11.60
2018-03-23T23:09:31.030Z,11.90
2018-03-23T23:12:00.824Z,12.20
2018-03-23T23:14:29.255Z,11.50
2018-03-23T23:16:57.365Z,11.40
2018-03-23T23:19:24.749Z,11.30
2018-03-23T23:21:55.073Z,10.80
2018-03-23T23:24:22.561Z,10.90
2018-03-23T23:26:50.818Z,10.50
2018-03-23T23:29:18.206Z,10.40
2018-03-23T23:34:14.695Z,10.60
2018-03-23T23:36:42.881Z,10.90
2018-03-23T23:39:10.361Z,10.60
2018-03-23T23:44:06.052Z,9.70
2018-03-23T23:49:01.648Z,9.60
2018-03-23T23:51:29.872Z,9.20
2018-03-23T23:53:57.317Z,9.00
2018-03-23T23:58:53.741Z,8.70
